createdAt,value
2022-09-13T00:01:19.875Z,7.11
2022-09-13T00:03:48.161Z,7.14
2022-09-13T00:06:19.350Z,7.18
2022-09-13T00:08:49.093Z,7.23
2022-09-13T00:11:24.060Z,7.28
2022-09-13T00:13:56.613Z,7.34
2022-09-13T00:16:27.562Z,7.40
2022-09-13T00:18:56.561Z,7.47
2022-09-13T00:21:25.395Z,7.53
2022-09-13T00:23:55.644Z,7.62
2022-09-13T00:26:28.623Z,7.71
2022-09-13T00:28:59.213Z,7.79
2022-09-13T00:31:28.994Z,7.85
2022-09-13T00:34:00.217Z,7.93
2022-09-13T00:36:29.177Z,8.00
2022-09-13T00:38:58.193Z,8.09
2022-09-13T00:41:26.525Z,8.18
2022-09-13T00:44:00.968Z,8.25
2022-09-13T00:46:47.214Z,8.33
2022-09-13T00:49:34.210Z,8.41
2022-09-13T00:52:08.833Z,8.50
2022-09-13T00:54:45.911Z,8.58
2022-09-13T00:57:17.780Z,8.66
2022-09-13T01:00:14.007Z,8.74
2022-09-13T01:02:56.206Z,8.83
2022-09-13T01:05:30.925Z,8.89
2022-09-13T01:08:00.959Z,8.95
2022-09-13T01:10:32.064Z,9.00
2022-09-13T01:13:15.162Z,9.06
2022-09-13T01:15:44.194Z,9.11
2022-09-13T01:18:12.442Z,9.16
2022-09-13T01:20:55.538Z,9.20
2022-09-13T01:24:09.516Z,9.26
2022-09-13T01:26:46.738Z,9.34
2022-09-13T01:29:42.740Z,9.38
2022-09-13T01:32:10.894Z,9.44
2022-09-13T01:34:48.159Z,9.49
2022-09-13T01:37:43.860Z,9.53
2022-09-13T01:40:39.781Z,9.58
2022-09-13T01:43:27.698Z,9.65
2022-09-13T01:46:19.314Z,9.71
2022-09-13T01:49:12.325Z,9.75
2022-09-13T01:52:02.186Z,9.80
2022-09-13T01:54:52.469Z,9.84
2022-09-13T01:57:33.322Z,9.88
2022-09-13T02:00:14.446Z,9.94
2022-09-13T02:03:07.459Z,9.99
2022-09-13T02:05:56.363Z,10.04
2022-09-13T02:08:47.779Z,10.08
2022-09-13T02:11:22.673Z,10.12
2022-09-13T02:13:55.556Z,10.16
2022-09-13T02:16:36.116Z,10.20
2022-09-13T02:19:18.796Z,10.24
2022-09-13T02:21:53.353Z,10.27
2022-09-13T02:24:29.414Z,10.30
2022-09-13T02:27:03.742Z,10.32
2022-09-13T02:29:34.646Z,10.35
2022-09-13T02:32:26.033Z,10.37
2022-09-13T02:34:59.782Z,10.39
2022-09-13T02:37:32.115Z,10.41
2022-09-13T02:40:06.700Z,10.41
2022-09-13T02:42:44.892Z,10.42
2022-09-13T02:45:15.764Z,10.41
2022-09-13T02:47:58.565Z,10.40
2022-09-13T02:50:35.330Z,10.37
2022-09-13T02:53:15.742Z,10.35
2022-09-13T02:55:58.958Z,10.33
2022-09-13T02:58:45.287Z,10.30
2022-09-13T03:01:15.663Z,10.27
2022-09-13T03:03:44.878Z,10.24
2022-09-13T03:06:13.710Z,10.21
2022-09-13T03:08:42.007Z,10.18
2022-09-13T03:11:41.949Z,10.14
2022-09-13T03:14:44.042Z,10.10
2022-09-13T03:17:24.032Z,10.07
2022-09-13T03:20:42.394Z,10.03
2022-09-13T03:23:23.355Z,9.99
2022-09-13T03:26:06.976Z,9.97
2022-09-13T03:28:35.450Z,9.93
2022-09-13T03:31:30.171Z,9.89
2022-09-13T03:34:04.262Z,9.85
2022-09-13T03:36:54.470Z,9.83
2022-09-13T03:39:40.395Z,9.81
2022-09-13T03:42:59.613Z,9.77
2022-09-13T03:45:34.105Z,9.73
2022-09-13T03:48:05.789Z,9.70
2022-09-13T03:50:34.777Z,9.68
2022-09-13T03:53:12.402Z,9.65
2022-09-13T03:55:44.448Z,9.63
2022-09-13T03:58:18.340Z,9.60
2022-09-13T04:00:46.748Z,9.58
2022-09-13T04:03:15.865Z,9.54
2022-09-13T04:05:44.046Z,9.51
2022-09-13T04:08:12.299Z,9.45
2022-09-13T04:10:40.946Z,9.39
2022-09-13T04:13:09.216Z,9.33
2022-09-13T04:15:37.459Z,9.28
2022-09-13T04:18:05.794Z,9.21
2022-09-13T04:20:34.450Z,9.13
2022-09-13T04:23:02.666Z,9.08
2022-09-13T04:25:30.918Z,9.05
2022-09-13T04:28:00.314Z,9.03
2022-09-13T04:30:28.706Z,9.00
2022-09-13T04:32:58.819Z,8.98
2022-09-13T04:35:27.477Z,8.95
2022-09-13T04:37:59.433Z,8.93
2022-09-13T04:40:27.662Z,8.92
2022-09-13T04:42:55.864Z,8.92
2022-09-13T04:45:24.803Z,8.91
2022-09-13T04:47:54.511Z,8.90
2022-09-13T04:50:24.839Z,8.89
2022-09-13T04:52:55.518Z,8.90
2022-09-13T04:55:26.304Z,8.91
2022-09-13T04:57:56.133Z,8.91
2022-09-13T05:00:26.520Z,8.91
2022-09-13T05:02:56.757Z,8.94
2022-09-13T05:05:26.149Z,8.98
2022-09-13T05:07:54.446Z,9.02
2022-09-13T05:10:22.774Z,9.08
2022-09-13T05:12:51.006Z,9.12
2022-09-13T05:15:19.273Z,9.17
2022-09-13T05:17:47.497Z,9.21
2022-09-13T05:20:16.179Z,9.26
2022-09-13T05:22:44.429Z,9.33
2022-09-13T05:25:12.765Z,9.40
2022-09-13T05:27:40.922Z,9.48
2022-09-13T05:30:09.611Z,9.56
2022-09-13T05:32:37.938Z,9.65
2022-09-13T05:35:06.397Z,9.75
2022-09-13T05:37:34.737Z,9.86
2022-09-13T05:40:12.536Z,9.99
2022-09-13T05:42:41.463Z,10.12
2022-09-13T05:45:09.841Z,10.25
2022-09-13T05:47:38.168Z,10.40
2022-09-13T05:50:12.058Z,10.55
2022-09-13T05:52:54.782Z,10.69
2022-09-13T05:55:23.646Z,10.84
2022-09-13T05:57:51.818Z,10.96
2022-09-13T06:00:20.208Z,11.07
2022-09-13T06:02:48.449Z,11.17
2022-09-13T06:05:16.729Z,11.25
2022-09-13T06:07:44.979Z,11.31
2022-09-13T06:10:13.471Z,11.38
2022-09-13T06:12:41.663Z,11.44
2022-09-13T06:15:11.697Z,11.50
2022-09-13T06:17:40.104Z,11.59
2022-09-13T06:20:09.566Z,11.67
2022-09-13T06:22:37.841Z,11.74
2022-09-13T06:25:06.594Z,11.82
2022-09-13T06:27:35.021Z,11.90
2022-09-13T06:30:03.425Z,11.98
2022-09-13T06:32:31.933Z,12.03
2022-09-13T06:35:00.384Z,12.11
2022-09-13T06:37:28.655Z,12.17
2022-09-13T06:39:57.881Z,12.24
2022-09-13T06:42:26.227Z,12.31
2022-09-13T06:44:54.445Z,12.37
2022-09-13T06:47:23.547Z,12.45
2022-09-13T06:49:51.830Z,12.52
2022-09-13T06:52:20.065Z,12.58
2022-09-13T06:54:48.530Z,12.62
2022-09-13T06:57:16.928Z,12.63
2022-09-13T06:59:45.181Z,12.72
2022-09-13T07:02:15.450Z,12.85
2022-09-13T07:04:43.778Z,12.99
2022-09-13T07:07:12.531Z,13.16
2022-09-13T07:09:42.763Z,13.35
2022-09-13T07:12:10.967Z,13.53
2022-09-13T07:14:39.169Z,13.73
2022-09-13T07:17:07.446Z,13.94
2022-09-13T07:19:35.962Z,14.11
2022-09-13T07:22:05.246Z,14.28
2022-09-13T07:24:33.513Z,14.48
2022-09-13T07:27:01.713Z,14.71
2022-09-13T07:29:30.143Z,14.91
2022-09-13T07:31:58.857Z,15.12
2022-09-13T07:34:27.670Z,15.30
2022-09-13T07:36:55.973Z,15.47
2022-09-13T07:39:24.458Z,15.67
2022-09-13T07:41:54.128Z,15.88
2022-09-13T07:44:23.194Z,16.08
2022-09-13T07:46:51.751Z,16.27
2022-09-13T07:49:21.077Z,16.42
2022-09-13T07:51:51.717Z,16.58
2022-09-13T07:54:21.249Z,16.73
2022-09-13T07:56:52.046Z,16.88
2022-09-13T07:59:20.545Z,16.97
2022-09-13T08:01:52.368Z,17.02
2022-09-13T08:04:25.350Z,17.13
2022-09-13T08:06:53.684Z,17.21
2022-09-13T08:09:21.930Z,17.31
2022-09-13T08:11:53.386Z,17.45
2022-09-13T08:14:24.411Z,17.62
2022-09-13T08:16:57.133Z,17.65
2022-09-13T08:19:25.846Z,17.70
2022-09-13T08:21:54.040Z,17.86
2022-09-13T08:24:23.130Z,18.08
2022-09-13T08:26:54.863Z,18.31
2022-09-13T08:29:23.942Z,18.44
2022-09-13T08:31:53.439Z,18.54
2022-09-13T08:34:22.013Z,18.71
2022-09-13T08:36:50.289Z,18.87
2022-09-13T08:39:18.576Z,19.02
2022-09-13T08:42:07.462Z,19.12
2022-09-13T08:44:40.157Z,19.17
2022-09-13T08:47:28.074Z,19.06
2022-09-13T08:50:13.070Z,18.90
2022-09-13T08:53:03.177Z,18.71
2022-09-13T08:56:02.579Z,18.62
2022-09-13T08:58:36.313Z,18.82
2022-09-13T09:01:36.305Z,18.90
2022-09-13T09:04:26.100Z,18.79
2022-09-13T09:07:19.911Z,18.69
2022-09-13T09:09:54.792Z,18.73
2022-09-13T09:12:33.435Z,18.88
2022-09-13T09:15:19.911Z,18.87
2022-09-13T09:18:25.727Z,19.03
2022-09-13T09:20:57.378Z,18.97
2022-09-13T09:23:25.603Z,18.99
2022-09-13T09:26:01.002Z,19.22
2022-09-13T09:28:31.843Z,19.41
2022-09-13T09:31:12.596Z,19.73
2022-09-13T09:34:27.991Z,19.92
2022-09-13T09:37:08.430Z,20.06
2022-09-13T09:39:42.106Z,20.15
2022-09-13T09:42:20.695Z,20.30
2022-09-13T09:44:53.010Z,20.44
2022-09-13T09:47:29.582Z,20.54
2022-09-13T09:50:09.510Z,20.59
2022-09-13T09:52:53.966Z,20.64
2022-09-13T09:55:33.814Z,20.90
2022-09-13T09:58:08.416Z,21.17
2022-09-13T10:00:50.842Z,21.28
2022-09-13T10:03:24.908Z,21.34
2022-09-13T10:06:06.399Z,21.37
2022-09-13T10:08:37.626Z,21.31
2022-09-13T10:11:07.107Z,21.43
2022-09-13T10:13:38.673Z,21.58
2022-09-13T10:16:26.657Z,21.78
2022-09-13T10:18:55.856Z,21.74
2022-09-13T10:21:27.355Z,21.59
2022-09-13T10:24:17.218Z,21.74
2022-09-13T10:26:46.426Z,21.92
2022-09-13T10:29:17.641Z,22.07
2022-09-13T10:31:50.459Z,22.19
2022-09-13T10:34:24.834Z,22.27
2022-09-13T10:37:21.742Z,22.42
2022-09-13T10:39:57.122Z,22.54
2022-09-13T10:42:28.446Z,22.61
2022-09-13T10:45:03.997Z,22.73
2022-09-13T10:47:33.833Z,22.90
2022-09-13T10:50:20.163Z,23.01
2022-09-13T10:52:59.393Z,23.16
2022-09-13T10:55:27.921Z,23.24
2022-09-13T10:58:13.863Z,23.24
2022-09-13T11:01:00.742Z,23.09
2022-09-13T11:03:44.722Z,23.00
2022-09-13T11:06:40.046Z,23.07
2022-09-13T11:09:12.756Z,23.09
2022-09-13T11:11:46.041Z,23.11
2022-09-13T11:14:39.993Z,23.10
2022-09-13T11:17:27.129Z,23.02
2022-09-13T11:20:27.611Z,22.83
2022-09-13T11:23:02.471Z,22.67
2022-09-13T11:25:42.758Z,22.61
2022-09-13T11:28:21.472Z,22.50
2022-09-13T11:31:12.787Z,22.54
2022-09-13T11:33:54.598Z,22.63
2022-09-13T11:36:23.215Z,22.69
2022-09-13T11:39:20.812Z,22.69
2022-09-13T11:42:01.053Z,22.63
2022-09-13T11:44:36.727Z,22.54
2022-09-13T11:47:11.818Z,22.50
2022-09-13T11:49:45.961Z,22.41
2022-09-13T11:52:29.341Z,22.27
2022-09-13T11:55:14.255Z,22.18
2022-09-13T11:57:48.680Z,22.14
2022-09-13T12:00:19.830Z,22.12
2022-09-13T12:03:16.369Z,22.16
2022-09-13T12:05:53.154Z,22.21
2022-09-13T12:08:42.905Z,22.29
2022-09-13T12:11:16.412Z,22.44
2022-09-13T12:13:55.097Z,22.52
2022-09-13T12:16:31.023Z,22.64
2022-09-13T12:19:09.010Z,22.72
2022-09-13T12:21:41.223Z,22.90
2022-09-13T12:24:25.501Z,23.01
2022-09-13T12:27:10.768Z,23.13
2022-09-13T12:29:51.845Z,23.32
2022-09-13T12:32:21.104Z,23.43
2022-09-13T12:35:01.474Z,23.52
2022-09-13T12:37:35.577Z,23.61
2022-09-13T12:40:55.274Z,23.72
2022-09-13T12:43:48.035Z,23.88
2022-09-13T12:46:45.837Z,23.98
2022-09-13T12:49:44.917Z,24.21
2022-09-13T12:52:13.146Z,24.33
2022-09-13T12:54:59.879Z,24.27
2022-09-13T12:57:39.359Z,24.28
2022-09-13T13:00:22.237Z,24.42
2022-09-13T13:03:00.470Z,24.61
2022-09-13T13:05:33.573Z,24.75
2022-09-13T13:08:18.748Z,24.84
2022-09-13T13:11:03.786Z,24.84
2022-09-13T13:13:39.560Z,24.51
2022-09-13T13:16:28.946Z,24.16
2022-09-13T13:19:02.337Z,23.69
2022-09-13T13:21:39.787Z,23.34
2022-09-13T13:24:17.419Z,23.02
2022-09-13T13:26:50.450Z,22.71
2022-09-13T13:29:25.956Z,22.55
2022-09-13T13:31:57.824Z,22.38
2022-09-13T13:34:30.769Z,22.24
2022-09-13T13:37:31.750Z,22.12
2022-09-13T13:40:24.018Z,22.11
2022-09-13T13:43:17.431Z,22.21
2022-09-13T13:46:11.852Z,22.38
2022-09-13T13:48:42.711Z,22.54
2022-09-13T13:51:12.022Z,22.57
2022-09-13T13:53:46.962Z,22.49
2022-09-13T13:56:21.169Z,22.30
2022-09-13T13:58:51.245Z,22.08
2022-09-13T14:01:25.482Z,21.92
2022-09-13T14:04:09.045Z,21.81
2022-09-13T14:07:00.424Z,21.69
2022-09-13T14:09:57.755Z,21.60
2022-09-13T14:12:50.942Z,21.60
2022-09-13T14:16:05.754Z,21.69
2022-09-13T14:19:10.173Z,21.70
2022-09-13T14:21:38.575Z,21.64
2022-09-13T14:24:20.701Z,21.60
2022-09-13T14:27:04.921Z,21.55
2022-09-13T14:29:36.454Z,21.50
2022-09-13T14:32:10.993Z,21.49
2022-09-13T14:34:39.734Z,21.48
2022-09-13T14:37:19.488Z,21.47
2022-09-13T14:40:08.410Z,21.49
2022-09-13T14:42:46.504Z,21.53
2022-09-13T14:45:25.929Z,21.57
2022-09-13T14:48:07.329Z,21.59
2022-09-13T14:50:45.817Z,21.56
2022-09-13T14:53:22.290Z,21.49
2022-09-13T14:55:57.435Z,21.39
2022-09-13T14:58:47.930Z,21.30
2022-09-13T15:01:26.951Z,21.18
2022-09-13T15:03:59.087Z,21.10
2022-09-13T15:06:31.028Z,21.05
2022-09-13T15:09:11.706Z,21.01
2022-09-13T15:11:52.976Z,20.97
2022-09-13T15:14:24.253Z,20.90
2022-09-13T15:17:08.521Z,20.83
2022-09-13T15:19:48.289Z,20.75
2022-09-13T15:22:22.492Z,20.64
2022-09-13T15:24:57.506Z,20.54
2022-09-13T15:27:47.578Z,20.46
2022-09-13T15:30:31.373Z,20.37
2022-09-13T15:33:09.024Z,20.33
2022-09-13T15:35:43.424Z,20.30
2022-09-13T15:38:14.533Z,20.26
2022-09-13T15:40:48.355Z,20.20
2022-09-13T15:43:16.614Z,20.15
2022-09-13T15:45:45.418Z,20.05
2022-09-13T15:48:26.140Z,19.95
2022-09-13T15:51:13.012Z,19.85
2022-09-13T15:53:44.227Z,19.68
2022-09-13T15:56:20.386Z,19.58
2022-09-13T15:58:48.987Z,19.51
2022-09-13T16:01:18.378Z,19.45
2022-09-13T16:03:46.759Z,19.37
2022-09-13T16:06:15.025Z,19.30
2022-09-13T16:08:43.295Z,19.23
2022-09-13T16:11:11.509Z,19.15
2022-09-13T16:13:39.737Z,19.01
2022-09-13T16:16:11.444Z,18.93
2022-09-13T16:18:40.146Z,18.86
2022-09-13T16:21:08.451Z,18.78
2022-09-13T16:23:36.765Z,18.70
2022-09-13T16:26:06.622Z,18.63
2022-09-13T16:28:34.909Z,18.54
2022-09-13T16:31:03.229Z,18.39
2022-09-13T16:33:31.593Z,18.30
2022-09-13T16:36:02.297Z,18.25
2022-09-13T16:38:31.024Z,18.19
2022-09-13T16:40:59.298Z,18.12
2022-09-13T16:43:27.710Z,18.04
2022-09-13T16:45:55.954Z,17.97
2022-09-13T16:48:24.270Z,17.91
2022-09-13T16:50:52.657Z,17.85
2022-09-13T16:53:20.861Z,17.76
2022-09-13T16:55:49.529Z,17.68
2022-09-13T16:58:17.673Z,17.62
2022-09-13T17:00:45.857Z,17.56
2022-09-13T17:03:14.485Z,17.51
2022-09-13T17:05:42.794Z,17.44
2022-09-13T17:08:10.981Z,17.36
2022-09-13T17:10:39.306Z,17.27
2022-09-13T17:13:07.521Z,17.19
2022-09-13T17:15:39.788Z,17.13
2022-09-13T17:18:08.958Z,17.08
2022-09-13T17:20:42.853Z,17.02
2022-09-13T17:23:11.147Z,16.96
2022-09-13T17:25:46.257Z,16.91
2022-09-13T17:28:16.455Z,16.85
2022-09-13T17:30:47.189Z,16.79
2022-09-13T17:33:15.574Z,16.75
2022-09-13T17:35:43.763Z,16.71
2022-09-13T17:38:11.953Z,16.65
2022-09-13T17:40:41.919Z,16.59
2022-09-13T17:43:10.146Z,16.53
2022-09-13T17:45:38.389Z,16.48
2022-09-13T17:48:06.656Z,16.44
2022-09-13T17:50:34.813Z,16.39
2022-09-13T17:53:04.542Z,16.36
2022-09-13T17:55:32.855Z,16.31
2022-09-13T17:58:01.002Z,16.25
2022-09-13T18:00:29.194Z,16.22
2022-09-13T18:02:57.485Z,16.19
2022-09-13T18:05:25.777Z,16.14
2022-09-13T18:07:54.506Z,16.10
2022-09-13T18:10:45.690Z,16.06
2022-09-13T18:13:10.993Z,16.02
2022-09-13T18:15:39.471Z,15.96
2022-09-13T18:18:07.810Z,15.93
2022-09-13T18:20:40.355Z,15.89
2022-09-13T18:23:09.254Z,15.83
2022-09-13T18:25:38.725Z,15.77
2022-09-13T18:28:07.009Z,15.72
2022-09-13T18:30:35.288Z,15.67
2022-09-13T18:33:03.701Z,15.63
2022-09-13T18:35:32.558Z,15.63
2022-09-13T18:38:02.070Z,15.62
2022-09-13T18:40:30.525Z,15.62
2022-09-13T18:42:59.305Z,15.63
2022-09-13T18:45:27.670Z,15.63
2022-09-13T18:47:55.970Z,15.64
2022-09-13T18:50:24.303Z,15.63
2022-09-13T18:52:52.939Z,15.64
2022-09-13T18:55:21.201Z,15.64
2022-09-13T18:57:49.470Z,15.66
2022-09-13T19:00:17.760Z,15.68
2022-09-13T19:03:10.800Z,15.71
2022-09-13T19:05:39.620Z,15.74
2022-09-13T19:08:10.970Z,15.75
2022-09-13T19:10:40.321Z,15.78
2022-09-13T19:13:08.610Z,15.79
2022-09-13T19:15:36.899Z,15.81
2022-09-13T19:18:05.276Z,15.83
2022-09-13T19:20:33.525Z,15.83
2022-09-13T19:23:03.183Z,15.84
2022-09-13T19:25:35.461Z,15.85
2022-09-13T19:28:03.782Z,15.84
2022-09-13T19:30:35.200Z,15.84
2022-09-13T19:33:03.575Z,15.84
2022-09-13T19:35:36.255Z,15.84
2022-09-13T19:38:04.443Z,15.84
2022-09-13T19:40:34.421Z,15.82
2022-09-13T19:43:03.319Z,15.83
2022-09-13T19:45:33.231Z,15.85
2022-09-13T19:48:37.055Z,15.87
2022-09-13T19:50:53.177Z,15.90
2022-09-13T19:53:31.927Z,15.93
2022-09-13T19:56:15.894Z,15.97
2022-09-13T19:58:44.866Z,15.99
2022-09-13T20:01:21.767Z,16.03
2022-09-13T20:03:56.993Z,16.07
2022-09-13T20:06:27.421Z,16.10
2022-09-13T20:09:01.059Z,16.11
2022-09-13T20:11:41.925Z,16.13
2022-09-13T20:14:11.734Z,16.14
2022-09-13T20:16:41.734Z,16.16
2022-09-13T20:19:39.856Z,16.18
2022-09-13T20:22:11.866Z,16.20
2022-09-13T20:24:40.247Z,16.22
2022-09-13T20:27:10.368Z,16.22
2022-09-13T20:29:39.119Z,16.23
2022-09-13T20:32:08.239Z,16.22
2022-09-13T20:34:38.060Z,16.22
2022-09-13T20:37:07.216Z,16.22
2022-09-13T20:39:36.023Z,16.21
2022-09-13T20:42:04.683Z,16.21
2022-09-13T20:44:34.009Z,16.21
2022-09-13T20:47:02.340Z,16.21
2022-09-13T20:49:30.634Z,16.21
2022-09-13T20:52:00.212Z,16.22
2022-09-13T20:54:28.517Z,16.22
2022-09-13T20:56:56.850Z,16.23
2022-09-13T20:59:25.463Z,16.24
2022-09-13T21:01:54.246Z,16.25
2022-09-13T21:04:22.735Z,16.27
2022-09-13T21:07:14.278Z,16.28
2022-09-13T21:09:43.721Z,16.30
2022-09-13T21:12:12.000Z,16.30
2022-09-13T21:14:40.223Z,16.30
2022-09-13T21:17:08.971Z,16.30
2022-09-13T21:19:37.528Z,16.31
2022-09-13T21:22:06.553Z,16.32
2022-09-13T21:24:35.238Z,16.32
2022-09-13T21:27:03.707Z,16.33
2022-09-13T21:29:33.235Z,16.35
2022-09-13T21:32:01.659Z,16.36
2022-09-13T21:34:30.062Z,16.38
2022-09-13T21:36:58.449Z,16.40
2022-09-13T21:39:26.884Z,16.41
2022-09-13T21:41:55.110Z,16.43
2022-09-13T21:44:23.677Z,16.46
2022-09-13T21:46:51.958Z,16.48
2022-09-13T21:49:20.368Z,16.50
2022-09-13T21:51:50.054Z,16.52
2022-09-13T21:54:20.447Z,16.53
2022-09-13T21:56:51.606Z,16.54
2022-09-13T21:59:21.615Z,16.54
2022-09-13T22:01:52.570Z,16.56
2022-09-13T22:04:27.689Z,16.57
2022-09-13T22:06:56.651Z,16.57
2022-09-13T22:09:27.377Z,16.58
2022-09-13T22:11:56.742Z,16.60
2022-09-13T22:14:26.807Z,16.63
2022-09-13T22:16:55.227Z,16.63
2022-09-13T22:19:26.469Z,16.66
2022-09-13T22:21:59.412Z,16.67
2022-09-13T22:24:32.387Z,16.68
2022-09-13T22:27:01.282Z,16.69
2022-09-13T22:29:30.206Z,16.70
2022-09-13T22:31:58.635Z,16.71
2022-09-13T22:34:31.014Z,16.72
2022-09-13T22:37:00.374Z,16.75
2022-09-13T22:39:28.835Z,16.76
2022-09-13T22:41:57.034Z,16.77
2022-09-13T22:44:25.343Z,16.77
2022-09-13T22:46:53.724Z,16.77
2022-09-13T22:49:21.961Z,16.77
2022-09-13T22:51:50.636Z,16.78
2022-09-13T22:54:19.636Z,16.77
2022-09-13T22:56:48.779Z,16.76
2022-09-13T22:59:20.165Z,16.77
2022-09-13T23:01:49.494Z,16.78
2022-09-13T23:04:17.986Z,16.77
2022-09-13T23:06:46.430Z,16.75
2022-09-13T23:09:26.288Z,16.72
2022-09-13T23:11:54.633Z,16.68
2022-09-13T23:14:22.951Z,16.66
2022-09-13T23:16:52.495Z,16.65
2022-09-13T23:19:23.164Z,16.64
2022-09-13T23:21:53.813Z,16.63
2022-09-13T23:24:24.540Z,16.63
2022-09-13T23:26:56.208Z,16.64
2022-09-13T23:29:24.514Z,16.65
2022-09-13T23:31:52.867Z,16.66
2022-09-13T23:34:21.205Z,16.67
2022-09-13T23:36:50.101Z,16.68
2022-09-13T23:39:20.085Z,16.69
2022-09-13T23:41:49.547Z,16.69
2022-09-13T23:44:18.750Z,16.70
2022-09-13T23:46:47.030Z,16.73
2022-09-13T23:49:16.054Z,16.74
2022-09-13T23:51:44.412Z,16.74
2022-09-13T23:54:14.083Z,16.73
2022-09-13T23:56:43.112Z,16.72
2022-09-13T23:59:13.695Z,16.72
